createdAt,value
2018-08-19T00:00:52.320Z,4.70
2018-08-19T00:01:52.278Z,5.00
2018-08-19T00:02:52.234Z,5.00
2018-08-19T00:03:52.190Z,5.10
2018-08-19T00:04:52.125Z,5.20
2018-08-19T00:05:52.091Z,4.50
2018-08-19T00:06:52.051Z,4.80
2018-08-19T00:07:51.981Z,5.10
2018-08-19T00:08:51.957Z,5.00
2018-08-19T00:09:51.886Z,5.10
2018-08-19T00:10:51.835Z,5.30
2018-08-19T00:11:51.788Z,4.90
2018-08-19T00:12:51.742Z,5.20
2018-08-19T00:13:51.714Z,5.10
2018-08-19T00:14:51.647Z,5.30
2018-08-19T00:15:51.593Z,5.30
2018-08-19T00:16:51.546Z,5.10
2018-08-19T00:17:51.505Z,5.40
2018-08-19T00:18:51.481Z,5.20
2018-08-19T00:19:51.413Z,5.70
2018-08-19T00:20:51.360Z,5.50
2018-08-19T00:21:51.381Z,5.40
2018-08-19T00:22:51.260Z,5.70
2018-08-19T00:23:51.268Z,5.40
2018-08-19T00:24:51.169Z,5.70
2018-08-19T00:25:51.117Z,5.30
2018-08-19T00:26:51.080Z,5.40
2018-08-19T00:27:51.028Z,6.10
2018-08-19T00:28:51.004Z,5.80
2018-08-19T00:29:50.934Z,5.70
2018-08-19T00:30:50.882Z,5.90
2018-08-19T00:31:50.845Z,5.90
2018-08-19T00:32:50.784Z,6.00
2018-08-19T00:33:50.762Z,6.20
2018-08-19T00:34:50.696Z,6.10
2018-08-19T00:35:50.645Z,6.20
2018-08-19T00:36:50.593Z,5.90
2018-08-19T00:37:50.547Z,6.20
2018-08-19T00:38:50.529Z,6.20
2018-08-19T00:39:50.472Z,5.40
2018-08-19T00:40:50.419Z,5.90
2018-08-19T00:41:50.358Z,6.30
2018-08-19T00:42:50.305Z,6.60
2018-08-19T00:43:50.298Z,6.30
2018-08-19T00:44:50.217Z,6.30
2018-08-19T00:45:50.162Z,6.00
2018-08-19T00:46:50.142Z,6.20
2018-08-19T00:47:50.072Z,6.00
2018-08-19T00:48:50.019Z,6.10
2018-08-19T00:49:49.997Z,5.90
2018-08-19T00:50:49.925Z,6.70
2018-08-19T00:51:49.877Z,6.10
2018-08-19T00:52:49.826Z,6.70
2018-08-19T00:53:49.782Z,7.10
2018-08-19T00:54:49.757Z,6.90
2018-08-19T00:55:49.687Z,6.60
2018-08-19T00:56:49.657Z,6.90
2018-08-19T00:57:49.592Z,7.00
2018-08-19T00:58:49.551Z,7.60
2018-08-19T00:59:49.519Z,6.90
2018-08-19T01:00:49.448Z,7.10
2018-08-19T01:01:49.403Z,7.10
2018-08-19T01:02:49.351Z,7.10
2018-08-19T01:03:49.315Z,7.30
2018-08-19T01:04:49.279Z,6.60
2018-08-19T01:05:49.210Z,6.80
2018-08-19T01:06:49.182Z,7.20
2018-08-19T01:07:49.117Z,6.80
2018-08-19T01:08:49.076Z,6.60
2018-08-19T01:09:49.048Z,7.00
2018-08-19T01:10:48.985Z,7.00
2018-08-19T01:11:48.929Z,7.20
2018-08-19T01:12:48.874Z,7.20
2018-08-19T01:13:48.823Z,7.00
2018-08-19T01:14:48.800Z,7.00
2018-08-19T01:15:48.728Z,6.70
2018-08-19T01:16:48.676Z,6.80
2018-08-19T01:17:48.630Z,6.60
2018-08-19T01:18:48.586Z,6.80
2018-08-19T01:19:48.556Z,7.10
2018-08-19T01:20:48.487Z,6.60
2018-08-19T01:21:48.435Z,6.70
2018-08-19T01:22:48.399Z,6.50
2018-08-19T01:23:48.347Z,7.10
2018-08-19T01:24:48.334Z,7.10
2018-08-19T01:25:48.250Z,6.70
2018-08-19T01:26:48.201Z,6.50
2018-08-19T01:27:48.179Z,6.30
2018-08-19T01:28:48.124Z,6.50
2018-08-19T01:29:48.101Z,7.00
2018-08-19T01:30:48.021Z,6.20
2018-08-19T01:31:47.972Z,6.80
2018-08-19T01:32:47.922Z,7.30
2018-08-19T01:33:47.871Z,7.00
2018-08-19T01:34:47.872Z,7.00
2018-08-19T01:35:47.777Z,6.60
2018-08-19T01:36:47.722Z,6.80
2018-08-19T01:37:47.672Z,7.00
2018-08-19T01:38:47.632Z,6.70
2018-08-19T01:39:47.609Z,7.40
2018-08-19T01:40:47.546Z,6.80
2018-08-19T01:41:47.486Z,6.80
2018-08-19T01:42:47.453Z,6.60
2018-08-19T01:43:47.386Z,7.10
2018-08-19T01:44:47.369Z,7.10
2018-08-19T01:45:47.284Z,7.30
2018-08-19T01:46:47.241Z,6.90
2018-08-19T01:47:47.196Z,6.80
2018-08-19T01:48:47.141Z,7.20
2018-08-19T01:49:47.095Z,7.20
2018-08-19T01:50:47.068Z,7.40
2018-08-19T01:51:46.998Z,6.70
2018-08-19T01:52:46.953Z,7.00
2018-08-19T01:53:46.906Z,6.80
2018-08-19T01:54:46.852Z,7.10
2018-08-19T01:55:46.834Z,7.20
2018-08-19T01:56:46.761Z,7.20
2018-08-19T01:57:46.707Z,7.20
2018-08-19T01:58:46.660Z,7.10
2018-08-19T01:59:46.619Z,6.30
2018-08-19T02:00:46.591Z,6.50
2018-08-19T02:01:46.521Z,6.70
2018-08-19T02:02:46.475Z,7.00
2018-08-19T02:03:46.431Z,7.10
2018-08-19T02:04:46.372Z,6.90
2018-08-19T02:05:46.358Z,7.00
2018-08-19T02:06:46.279Z,6.60
2018-08-19T02:07:46.228Z,6.60
2018-08-19T02:08:46.180Z,6.80
2018-08-19T02:09:46.135Z,6.40
2018-08-19T02:10:46.108Z,6.00
2018-08-19T02:11:46.057Z,5.70
2018-08-19T02:12:45.995Z,5.90
2018-08-19T02:13:45.934Z,6.80
2018-08-19T02:14:45.892Z,6.00
2018-08-19T02:15:45.885Z,6.50
2018-08-19T02:16:45.795Z,6.50
2018-08-19T02:17:45.748Z,7.20
2018-08-19T02:18:45.701Z,6.80
2018-08-19T02:19:45.655Z,6.90
2018-08-19T02:20:45.660Z,7.20
2018-08-19T02:21:45.554Z,6.80
2018-08-19T02:22:45.512Z,7.00
2018-08-19T02:23:45.458Z,7.10
2018-08-19T02:24:45.412Z,7.30
2018-08-19T02:25:45.389Z,7.40
2018-08-19T02:26:45.328Z,7.60
2018-08-19T02:27:45.268Z,7.30
2018-08-19T02:28:45.218Z,7.30
2018-08-19T02:29:45.173Z,7.50
2018-08-19T02:30:45.148Z,7.60
2018-08-19T02:31:45.076Z,8.20
2018-08-19T02:32:45.025Z,8.60
2018-08-19T02:33:44.978Z,7.70
2018-08-19T02:34:44.934Z,8.30
2018-08-19T02:35:44.915Z,7.80
2018-08-19T02:36:44.834Z,7.60
2018-08-19T02:37:44.786Z,7.30
2018-08-19T02:38:44.736Z,7.60
2018-08-19T02:39:44.690Z,7.30
2018-08-19T02:40:44.665Z,7.60
2018-08-19T02:41:44.594Z,7.80
2018-08-19T02:42:44.544Z,7.60
2018-08-19T02:43:44.500Z,7.70
2018-08-19T02:44:44.448Z,7.90
2018-08-19T02:45:44.420Z,7.80
2018-08-19T02:46:44.349Z,7.80
2018-08-19T02:47:44.308Z,7.80
2018-08-19T02:48:44.256Z,7.70
2018-08-19T02:49:44.208Z,7.50
2018-08-19T02:50:44.181Z,8.00
2018-08-19T02:51:44.110Z,8.10
2018-08-19T02:52:44.062Z,7.60
2018-08-19T02:53:44.013Z,8.20
2018-08-19T02:54:43.969Z,8.20
2018-08-19T02:55:43.960Z,7.30
2018-08-19T02:56:43.873Z,7.40
2018-08-19T02:57:43.836Z,8.00
2018-08-19T02:58:43.799Z,7.40
2018-08-19T02:59:43.744Z,7.90
2018-08-19T03:00:43.722Z,7.60
2018-08-19T03:01:43.630Z,7.60
2018-08-19T03:02:43.583Z,7.90
2018-08-19T03:03:43.534Z,8.20
2018-08-19T03:04:43.483Z,7.90
2018-08-19T03:05:43.458Z,7.80
2018-08-19T03:06:43.384Z,8.00
2018-08-19T03:07:43.364Z,7.80
2018-08-19T03:08:43.287Z,7.90
2018-08-19T03:09:43.245Z,8.20
2018-08-19T03:10:43.232Z,8.30
2018-08-19T03:11:43.147Z,7.90
2018-08-19T03:12:43.100Z,8.10
2018-08-19T03:13:43.052Z,8.00
2018-08-19T03:14:43.008Z,7.80
2018-08-19T03:15:42.956Z,7.90
2018-08-19T03:16:42.935Z,8.10
2018-08-19T03:17:42.867Z,8.00
2018-08-19T03:18:42.812Z,8.20
2018-08-19T03:19:42.760Z,7.70
2018-08-19T03:20:42.714Z,7.60
2018-08-19T03:21:42.701Z,7.80
2018-08-19T03:22:42.639Z,7.90
2018-08-19T03:23:42.569Z,7.90
2018-08-19T03:24:42.522Z,8.00
2018-08-19T03:25:42.473Z,8.10
2018-08-19T03:26:42.450Z,7.90
2018-08-19T03:27:42.381Z,8.50
2018-08-19T03:28:42.346Z,7.80
2018-08-19T03:29:42.290Z,7.90
2018-08-19T03:30:42.242Z,8.40
2018-08-19T03:31:42.239Z,8.20
2018-08-19T03:32:42.137Z,8.30
2018-08-19T03:33:42.092Z,8.00
2018-08-19T03:34:42.049Z,7.70
2018-08-19T03:35:41.992Z,7.60
2018-08-19T03:36:41.971Z,7.70
2018-08-19T03:37:41.901Z,7.90
2018-08-19T03:38:41.855Z,7.60
2018-08-19T03:39:41.819Z,7.60
2018-08-19T03:40:41.762Z,7.70
2018-08-19T03:41:41.737Z,8.00
2018-08-19T03:42:41.655Z,7.70
2018-08-19T03:43:41.609Z,7.90
2018-08-19T03:44:41.569Z,8.30
2018-08-19T03:45:41.511Z,7.80
2018-08-19T03:46:41.490Z,8.10
2018-08-19T03:47:41.419Z,8.00
2018-08-19T03:48:41.364Z,7.60
2018-08-19T03:49:41.320Z,8.20
2018-08-19T03:50:41.289Z,8.40
2018-08-19T03:51:41.243Z,8.30
2018-08-19T03:52:41.172Z,8.10
2018-08-19T03:53:41.126Z,8.00
2018-08-19T03:54:41.075Z,8.30
2018-08-19T03:55:41.041Z,8.20
2018-08-19T03:56:41.011Z,8.50
2018-08-19T03:57:40.931Z,8.30
2018-08-19T03:58:40.889Z,8.10
2018-08-19T03:59:40.836Z,7.70
2018-08-19T04:00:40.789Z,8.20
2018-08-19T04:01:40.764Z,8.00
2018-08-19T04:02:40.690Z,7.90
2018-08-19T04:03:40.642Z,7.60
2018-08-19T04:04:40.603Z,8.10
2018-08-19T04:05:40.543Z,8.00
2018-08-19T04:06:40.535Z,8.20
2018-08-19T04:07:40.448Z,8.40
2018-08-19T04:08:40.403Z,8.10
2018-08-19T04:09:40.354Z,8.30
2018-08-19T04:10:40.304Z,8.40
2018-08-19T04:11:40.255Z,8.30
2018-08-19T04:12:40.231Z,8.20
2018-08-19T04:13:40.160Z,9.00
2018-08-19T04:14:40.113Z,8.50
2018-08-19T04:15:40.070Z,8.80
2018-08-19T04:16:40.023Z,8.20
2018-08-19T04:17:39.987Z,8.00
2018-08-19T04:18:39.924Z,8.60
2018-08-19T04:19:39.881Z,8.70
2018-08-19T04:20:39.818Z,8.20
2018-08-19T04:21:39.775Z,8.40
2018-08-19T04:22:39.748Z,8.30
2018-08-19T04:23:39.770Z,8.20
2018-08-19T04:24:39.637Z,8.50
2018-08-19T04:25:39.581Z,9.00
2018-08-19T04:26:39.534Z,9.30
2018-08-19T04:27:39.505Z,8.80
2018-08-19T04:28:39.436Z,9.30
2018-08-19T04:29:39.390Z,8.80
2018-08-19T04:30:39.339Z,8.80
2018-08-19T04:31:39.297Z,9.40
2018-08-19T04:32:39.265Z,9.20
2018-08-19T04:33:39.194Z,9.00
2018-08-19T04:34:39.153Z,9.20
2018-08-19T04:35:39.096Z,8.80
2018-08-19T04:36:39.066Z,9.10
2018-08-19T04:37:39.038Z,8.70
2018-08-19T04:38:38.955Z,9.50
2018-08-19T04:39:38.915Z,9.10
2018-08-19T04:40:38.853Z,9.20
2018-08-19T04:41:38.821Z,9.20
2018-08-19T04:42:38.799Z,8.70
2018-08-19T04:43:38.715Z,9.40
2018-08-19T04:44:38.663Z,9.00
2018-08-19T04:45:38.610Z,9.40
2018-08-19T04:46:38.565Z,8.80
2018-08-19T04:47:38.542Z,9.00
2018-08-19T04:48:38.469Z,9.30
2018-08-19T04:49:38.427Z,9.40
2018-08-19T04:50:38.384Z,8.70
2018-08-19T04:51:38.345Z,9.00
2018-08-19T04:52:38.298Z,9.20
2018-08-19T04:53:38.240Z,8.80
2018-08-19T04:54:38.184Z,7.80
2018-08-19T04:55:38.147Z,9.70
2018-08-19T04:56:38.080Z,9.00
2018-08-19T04:57:38.070Z,9.40
2018-08-19T04:58:37.988Z,8.80
2018-08-19T04:59:37.935Z,9.10
2018-08-19T05:00:37.889Z,8.90
2018-08-19T05:01:37.845Z,8.70
2018-08-19T05:02:37.865Z,9.10
2018-08-19T05:03:37.768Z,9.10
2018-08-19T05:04:37.696Z,9.10
2018-08-19T05:05:37.661Z,8.70
2018-08-19T05:06:37.602Z,8.70
2018-08-19T05:07:37.561Z,9.40
2018-08-19T05:08:37.533Z,9.30
2018-08-19T05:09:37.464Z,8.40
2018-08-19T05:10:37.424Z,9.40
2018-08-19T05:11:37.358Z,9.10
2018-08-19T05:12:37.311Z,9.10
2018-08-19T05:13:37.338Z,9.20
2018-08-19T05:14:37.216Z,8.80
2018-08-19T05:15:37.243Z,8.60
2018-08-19T05:16:37.117Z,9.00
2018-08-19T05:17:37.070Z,9.50
2018-08-19T05:18:37.056Z,9.20
2018-08-19T05:19:36.984Z,9.20
2018-08-19T05:20:36.925Z,8.80
2018-08-19T05:21:36.886Z,9.40
2018-08-19T05:22:36.850Z,9.30
2018-08-19T05:23:36.823Z,9.10
2018-08-19T05:24:36.729Z,9.00
2018-08-19T05:25:36.685Z,9.20
2018-08-19T05:26:36.635Z,9.00
2018-08-19T05:27:36.618Z,9.10
2018-08-19T05:28:36.568Z,8.90
2018-08-19T05:29:36.498Z,9.20
2018-08-19T05:30:36.467Z,8.90
2018-08-19T05:31:36.424Z,8.90
2018-08-19T05:32:36.349Z,8.80
2018-08-19T05:33:36.332Z,8.60
2018-08-19T05:34:36.250Z,8.20
2018-08-19T05:35:36.234Z,8.90
2018-08-19T05:36:36.162Z,9.10
2018-08-19T05:37:36.113Z,8.70
2018-08-19T05:38:36.108Z,8.90
2018-08-19T05:39:36.034Z,9.00
2018-08-19T05:40:35.964Z,8.80
2018-08-19T05:41:35.916Z,8.50
2018-08-19T05:42:35.876Z,8.10
2018-08-19T05:43:35.846Z,9.50
2018-08-19T05:44:35.775Z,8.90
2018-08-19T05:45:35.724Z,8.80
2018-08-19T05:46:35.705Z,9.00
2018-08-19T05:47:35.634Z,8.60
2018-08-19T05:48:35.604Z,8.50
2018-08-19T05:49:35.534Z,8.30
2018-08-19T05:50:35.497Z,8.20
2018-08-19T05:51:35.440Z,8.90
2018-08-19T05:52:35.389Z,8.80
2018-08-19T05:53:35.367Z,8.30
2018-08-19T05:54:35.298Z,8.40
2018-08-19T05:55:35.264Z,8.10
2018-08-19T05:56:35.217Z,8.50
2018-08-19T05:57:35.152Z,8.30
2018-08-19T05:58:35.143Z,8.50
2018-08-19T05:59:35.059Z,8.30
2018-08-19T06:00:35.010Z,8.40
2018-08-19T06:01:34.965Z,9.00
2018-08-19T06:02:34.916Z,9.10
2018-08-19T06:03:34.891Z,8.90
2018-08-19T06:04:34.826Z,8.30
2018-08-19T06:05:34.780Z,8.70
2018-08-19T06:06:34.746Z,8.00
2018-08-19T06:07:34.753Z,8.30
2018-08-19T06:08:34.681Z,8.70
2018-08-19T06:09:34.588Z,8.30
2018-08-19T06:10:34.547Z,8.70
2018-08-19T06:11:34.496Z,8.30
2018-08-19T06:12:34.444Z,8.60
2018-08-19T06:13:34.396Z,8.30
2018-08-19T06:14:34.374Z,8.70
2018-08-19T06:15:34.304Z,8.70
2018-08-19T06:16:34.258Z,8.40
2018-08-19T06:17:34.208Z,8.30
2018-08-19T06:18:34.166Z,8.10
2018-08-19T06:19:34.148Z,8.50
2018-08-19T06:20:34.072Z,9.40
2018-08-19T06:21:34.022Z,9.00
2018-08-19T06:22:33.977Z,8.70
2018-08-19T06:23:33.928Z,8.40
2018-08-19T06:24:33.940Z,9.20
2018-08-19T06:25:33.831Z,8.60
2018-08-19T06:26:33.788Z,8.70
2018-08-19T06:27:33.737Z,8.10
2018-08-19T06:28:33.694Z,8.50
2018-08-19T06:29:33.673Z,9.00
2018-08-19T06:30:33.596Z,8.50
2018-08-19T06:31:33.570Z,8.40
2018-08-19T06:32:33.509Z,8.40
2018-08-19T06:33:33.459Z,9.60
2018-08-19T06:34:33.575Z,8.80
2018-08-19T06:35:33.367Z,9.00
2018-08-19T06:36:33.360Z,8.20
2018-08-19T06:37:33.272Z,8.80
2018-08-19T06:38:33.227Z,9.00
2018-08-19T06:39:33.224Z,9.10
2018-08-19T06:40:33.138Z,9.00
2018-08-19T06:41:33.082Z,8.80
2018-08-19T06:42:33.048Z,8.40
2018-08-19T06:43:32.992Z,8.80
2018-08-19T06:44:32.970Z,8.50
2018-08-19T06:45:32.901Z,8.00
2018-08-19T06:46:32.850Z,9.00
2018-08-19T06:47:32.806Z,8.90
2018-08-19T06:48:32.759Z,8.90
2018-08-19T06:49:32.741Z,9.10
2018-08-19T06:50:32.666Z,8.50
2018-08-19T06:51:32.622Z,8.90
2018-08-19T06:52:32.576Z,8.10
2018-08-19T06:53:32.540Z,8.40
2018-08-19T06:54:32.519Z,8.20
2018-08-19T06:55:32.433Z,8.80
2018-08-19T06:56:32.385Z,8.30
2018-08-19T06:57:32.338Z,8.80
2018-08-19T06:58:32.311Z,8.60
2018-08-19T06:59:32.284Z,9.60
2018-08-19T07:00:32.215Z,9.30
2018-08-19T07:01:32.159Z,9.60
2018-08-19T07:02:32.129Z,8.70
2018-08-19T07:03:32.171Z,9.20
2018-08-19T07:04:32.056Z,8.30
2018-08-19T07:05:31.970Z,9.00
2018-08-19T07:06:31.974Z,8.80
2018-08-19T07:07:31.880Z,8.10
2018-08-19T07:08:31.849Z,8.60
2018-08-19T07:09:31.834Z,9.20
2018-08-19T07:10:31.747Z,9.00
2018-08-19T07:11:31.695Z,9.00
2018-08-19T07:12:31.655Z,9.30
2018-08-19T07:13:31.603Z,9.10
2018-08-19T07:14:31.646Z,8.80
2018-08-19T07:15:31.515Z,9.30
2018-08-19T07:16:31.479Z,9.30
2018-08-19T07:17:31.474Z,8.80
2018-08-19T07:18:31.385Z,9.30
2018-08-19T07:19:31.344Z,8.60
2018-08-19T07:20:31.274Z,9.10
2018-08-19T07:21:31.268Z,9.40
2018-08-19T07:22:31.213Z,8.60
2018-08-19T07:23:31.146Z,8.70
2018-08-19T07:24:31.116Z,9.00
2018-08-19T07:25:31.056Z,9.00
2018-08-19T07:26:31.039Z,9.10
2018-08-19T07:27:30.970Z,8.90
2018-08-19T07:28:30.913Z,8.70
2018-08-19T07:29:30.920Z,9.20
2018-08-19T07:30:30.826Z,9.00
2018-08-19T07:31:30.813Z,8.80
2018-08-19T07:32:30.736Z,8.10
2018-08-19T07:33:30.725Z,8.70
2018-08-19T07:34:30.635Z,8.50
2018-08-19T07:35:30.632Z,8.80
2018-08-19T07:36:30.572Z,8.70
2018-08-19T07:37:30.499Z,9.10
2018-08-19T07:38:30.459Z,8.90
2018-08-19T07:39:30.408Z,9.20
2018-08-19T07:40:30.393Z,9.00
2018-08-19T07:41:30.319Z,8.60
2018-08-19T07:42:30.273Z,8.20
2018-08-19T07:43:30.241Z,8.10
2018-08-19T07:44:30.177Z,8.80
2018-08-19T07:45:30.156Z,8.60
2018-08-19T07:46:30.112Z,8.40
2018-08-19T07:47:30.054Z,8.50
2018-08-19T07:48:30.019Z,8.30
2018-08-19T07:49:29.957Z,8.10
2018-08-19T07:50:29.961Z,8.50
2018-08-19T07:51:29.867Z,8.60
2018-08-19T07:52:29.814Z,8.60
2018-08-19T07:53:29.775Z,8.00
2018-08-19T07:54:29.726Z,8.10
2018-08-19T07:55:29.705Z,8.00
2018-08-19T07:56:29.638Z,7.70
2018-08-19T07:57:29.590Z,8.00
2018-08-19T07:58:29.560Z,7.70
2018-08-19T07:59:29.542Z,7.60
2018-08-19T08:00:29.482Z,8.30
2018-08-19T08:01:29.497Z,8.00
2018-08-19T08:02:29.365Z,7.70
2018-08-19T08:03:29.325Z,8.20
2018-08-19T08:04:29.274Z,7.50
2018-08-19T08:05:29.260Z,7.20
2018-08-19T08:06:29.183Z,6.60
2018-08-19T08:07:29.137Z,6.50
2018-08-19T08:08:29.095Z,6.50
2018-08-19T08:09:29.044Z,6.80
2018-08-19T08:10:29.029Z,7.10
2018-08-19T08:11:28.956Z,6.40
2018-08-19T08:12:28.911Z,6.50
2018-08-19T08:13:28.865Z,6.40
2018-08-19T08:14:28.868Z,6.80
2018-08-19T08:15:28.813Z,6.30
2018-08-19T08:16:28.731Z,6.90
2018-08-19T08:17:28.706Z,6.60
2018-08-19T08:18:28.640Z,6.50
2018-08-19T08:19:28.615Z,6.20
2018-08-19T08:20:28.588Z,6.40
2018-08-19T08:21:28.709Z,5.80
2018-08-19T08:22:28.472Z,5.70
2018-08-19T08:23:28.420Z,5.70
2018-08-19T08:24:28.379Z,5.70
2018-08-19T08:25:28.373Z,5.60
2018-08-19T08:26:28.281Z,5.10
2018-08-19T08:27:28.244Z,5.80
2018-08-19T08:28:28.216Z,5.30
2018-08-19T08:29:28.155Z,4.70
2018-08-19T08:30:28.135Z,5.20
2018-08-19T08:31:28.073Z,5.40
2018-08-19T08:32:28.016Z,4.70
2018-08-19T08:33:27.970Z,5.30
2018-08-19T08:34:28.007Z,5.70
2018-08-19T08:35:27.908Z,5.30
2018-08-19T08:36:27.839Z,5.00
2018-08-19T08:37:27.826Z,5.10
2018-08-19T08:38:27.772Z,4.80
2018-08-19T08:39:27.725Z,4.90
2018-08-19T08:40:27.704Z,4.90
2018-08-19T08:41:27.629Z,5.20
2018-08-19T08:42:27.572Z,4.70
2018-08-19T08:43:27.527Z,5.20
2018-08-19T08:44:27.481Z,5.00
2018-08-19T08:45:27.460Z,5.50
2018-08-19T08:46:27.398Z,5.00
2018-08-19T08:47:27.361Z,5.40
2018-08-19T08:48:27.306Z,5.40
2018-08-19T08:49:27.258Z,5.40
2018-08-19T08:50:27.261Z,5.70
2018-08-19T08:51:27.173Z,5.70
2018-08-19T08:52:27.125Z,5.70
2018-08-19T08:53:27.089Z,5.70
2018-08-19T08:54:27.042Z,5.70
2018-08-19T08:55:26.998Z,5.40
2018-08-19T08:56:27.012Z,5.70
2018-08-19T08:57:26.916Z,5.30
2018-08-19T08:58:26.863Z,6.00
2018-08-19T08:59:26.822Z,6.00
2018-08-19T09:00:26.773Z,5.30
2018-08-19T09:01:26.757Z,5.80
2018-08-19T09:02:26.685Z,5.50
2018-08-19T09:03:26.641Z,5.10
2018-08-19T09:04:26.599Z,6.50
2018-08-19T09:05:26.556Z,6.00
2018-08-19T09:06:26.530Z,5.50
2018-08-19T09:07:26.462Z,6.20
2018-08-19T09:08:26.420Z,5.30
2018-08-19T09:09:26.381Z,5.30
2018-08-19T09:10:26.338Z,5.40
2018-08-19T09:11:26.310Z,5.70
2018-08-19T09:12:26.250Z,6.00
2018-08-19T09:13:26.200Z,6.20
2018-08-19T09:14:26.162Z,5.50
2018-08-19T09:15:26.137Z,6.20
2018-08-19T09:16:26.099Z,6.20
2018-08-19T09:17:26.053Z,5.50
2018-08-19T09:18:25.990Z,6.20
2018-08-19T09:19:26.016Z,5.80
2018-08-19T09:20:25.895Z,5.70
2018-08-19T09:21:25.875Z,5.60
2018-08-19T09:22:25.808Z,5.90
2018-08-19T09:23:25.776Z,5.90
2018-08-19T09:24:25.720Z,6.00
2018-08-19T09:25:25.674Z,5.60
2018-08-19T09:26:25.651Z,5.90
2018-08-19T09:27:25.711Z,5.80
2018-08-19T09:28:25.545Z,5.70
2018-08-19T09:29:25.499Z,5.40
2018-08-19T09:30:25.455Z,5.30
2018-08-19T09:31:25.435Z,5.50
2018-08-19T09:32:30.162Z,5.50
2018-08-19T09:33:25.346Z,4.90
2018-08-19T09:34:25.278Z,5.60
2018-08-19T09:35:25.234Z,5.30
2018-08-19T09:36:25.213Z,5.20
2018-08-19T09:37:25.146Z,5.00
2018-08-19T09:38:25.105Z,4.80
2018-08-19T09:39:25.070Z,5.10
2018-08-19T09:40:25.015Z,4.70
2018-08-19T09:41:25.001Z,4.80
2018-08-19T09:42:24.930Z,4.90
2018-08-19T09:43:24.889Z,5.10
2018-08-19T09:44:24.869Z,4.70
2018-08-19T09:45:24.798Z,4.70
2018-08-19T09:46:24.817Z,4.80
2018-08-19T09:47:24.712Z,5.00
2018-08-19T09:48:24.677Z,4.90
2018-08-19T09:49:24.625Z,4.70
2018-08-19T09:50:24.588Z,4.50
2018-08-19T09:51:24.562Z,4.50
2018-08-19T09:52:24.496Z,5.30
2018-08-19T09:53:24.450Z,4.70
2018-08-19T09:54:24.407Z,4.50
2018-08-19T09:55:24.368Z,5.10
2018-08-19T09:56:24.353Z,4.80
2018-08-19T09:57:24.277Z,4.80
2018-08-19T09:58:24.243Z,4.50
2018-08-19T09:59:24.188Z,4.80
2018-08-19T10:00:24.145Z,4.50
2018-08-19T10:01:24.149Z,4.60
2018-08-19T10:02:24.065Z,4.80
2018-08-19T10:03:24.016Z,4.80
2018-08-19T10:04:23.985Z,4.70
2018-08-19T10:05:23.943Z,4.80
2018-08-19T10:06:23.886Z,4.70
2018-08-19T10:07:23.911Z,4.80
2018-08-19T10:08:23.800Z,4.80
2018-08-19T10:09:23.782Z,5.00
2018-08-19T10:10:23.718Z,5.00
2018-08-19T10:11:23.671Z,5.20
2018-08-19T10:12:23.675Z,5.00
2018-08-19T10:13:23.646Z,4.80
2018-08-19T10:14:23.546Z,4.70
2018-08-19T10:15:23.501Z,4.90
2018-08-19T10:16:23.457Z,4.60
2018-08-19T10:17:23.439Z,4.90
2018-08-19T10:18:23.373Z,4.70
2018-08-19T10:19:23.330Z,4.70
2018-08-19T10:20:23.284Z,4.90
2018-08-19T10:21:23.248Z,4.90
2018-08-19T10:22:23.249Z,4.70
2018-08-19T10:23:23.164Z,5.00
2018-08-19T10:24:23.117Z,4.70
2018-08-19T10:25:23.081Z,4.30
2018-08-19T10:26:23.038Z,5.00
2018-08-19T10:27:23.011Z,4.70
2018-08-19T10:28:22.945Z,4.70
2018-08-19T10:29:22.906Z,4.80
2018-08-19T10:30:22.862Z,5.00
2018-08-19T10:31:22.834Z,4.80
2018-08-19T10:32:22.811Z,4.50
2018-08-19T10:33:22.731Z,5.20
2018-08-19T10:34:22.694Z,4.60
2018-08-19T10:35:22.650Z,4.50
2018-08-19T10:36:22.597Z,4.70
2018-08-19T10:37:22.588Z,4.70
2018-08-19T10:38:22.518Z,4.60
2018-08-19T10:39:22.486Z,4.70
2018-08-19T10:40:22.441Z,4.60
2018-08-19T10:41:22.388Z,4.70
2018-08-19T10:42:22.366Z,5.10
2018-08-19T10:43:22.300Z,4.30
2018-08-19T10:44:22.263Z,4.80
2018-08-19T10:45:22.215Z,4.50
2018-08-19T10:46:22.226Z,4.40
2018-08-19T10:47:22.179Z,4.50
2018-08-19T10:48:22.087Z,4.70
2018-08-19T10:49:22.048Z,4.50
2018-08-19T10:50:22.002Z,4.90
2018-08-19T10:51:21.957Z,4.90
2018-08-19T10:52:21.913Z,4.80
2018-08-19T10:53:21.933Z,5.00
2018-08-19T10:54:21.830Z,4.70
2018-08-19T10:55:21.783Z,5.10
2018-08-19T10:56:21.743Z,5.40
2018-08-19T10:57:21.700Z,4.80
2018-08-19T10:58:21.714Z,5.00
2018-08-19T10:59:21.612Z,4.90
2018-08-19T11:00:21.570Z,4.50
2018-08-19T11:01:21.530Z,4.80
2018-08-19T11:02:21.485Z,4.40
2018-08-19T11:03:21.466Z,4.40
2018-08-19T11:04:21.395Z,4.40
2018-08-19T11:05:21.360Z,4.90
2018-08-19T11:06:21.306Z,4.50
2018-08-19T11:07:21.267Z,4.70
2018-08-19T11:08:21.253Z,4.30
2018-08-19T11:09:21.184Z,4.40
2018-08-19T11:10:21.136Z,4.60
2018-08-19T11:11:21.099Z,4.40
2018-08-19T11:12:21.052Z,4.30
2018-08-19T11:13:21.068Z,4.50
2018-08-19T11:14:20.968Z,4.40
2018-08-19T11:15:20.923Z,4.20
2018-08-19T11:16:20.877Z,4.30
2018-08-19T11:17:20.838Z,4.60
2018-08-19T11:18:20.813Z,4.30
2018-08-19T11:19:20.748Z,4.40
2018-08-19T11:20:20.704Z,4.10
2018-08-19T11:21:20.661Z,4.20
2018-08-19T11:22:20.623Z,4.40
2018-08-19T11:23:20.595Z,4.60
2018-08-19T11:24:20.543Z,4.50
2018-08-19T11:25:20.493Z,4.20
2018-08-19T11:26:20.458Z,4.40
2018-08-19T11:27:20.402Z,4.60
2018-08-19T11:28:20.383Z,4.20
2018-08-19T11:29:20.319Z,3.80
2018-08-19T11:30:20.273Z,4.00
2018-08-19T11:31:20.283Z,4.20
2018-08-19T11:32:20.185Z,4.10
2018-08-19T11:33:20.196Z,4.00
2018-08-19T11:34:20.104Z,4.10
2018-08-19T11:35:20.060Z,4.10
2018-08-19T11:36:20.016Z,4.30
2018-08-19T11:37:19.975Z,4.60
2018-08-19T11:38:20.138Z,3.90
2018-08-19T11:39:19.885Z,4.00
2018-08-19T11:40:19.843Z,4.00
2018-08-19T11:41:19.803Z,4.00
2018-08-19T11:42:19.754Z,4.10
2018-08-19T11:43:19.764Z,4.10
2018-08-19T11:44:19.694Z,4.20
2018-08-19T11:45:19.688Z,4.20
2018-08-19T11:46:19.597Z,4.80
2018-08-19T11:47:19.545Z,4.10
2018-08-19T11:48:19.524Z,3.90
2018-08-19T11:49:19.455Z,4.00
2018-08-19T11:50:19.419Z,4.00
2018-08-19T11:51:19.371Z,4.30
2018-08-19T11:52:19.331Z,4.30
2018-08-19T11:53:19.310Z,4.30
2018-08-19T11:54:19.264Z,4.20
2018-08-19T11:55:19.229Z,4.30
2018-08-19T11:56:19.165Z,4.20
2018-08-19T11:57:19.112Z,4.00
2018-08-19T11:58:19.112Z,4.10
2018-08-19T11:59:19.026Z,4.30
2018-08-19T12:00:18.984Z,3.80
2018-08-19T12:01:18.941Z,4.00
2018-08-19T12:02:18.896Z,4.60
2018-08-19T12:03:18.852Z,4.10
2018-08-19T12:04:18.832Z,4.40
2018-08-19T12:05:18.804Z,4.10
2018-08-19T12:06:18.722Z,4.00
2018-08-19T12:07:18.679Z,4.10
2018-08-19T12:08:18.701Z,4.20
2018-08-19T12:09:18.619Z,4.30
2018-08-19T12:10:18.548Z,4.40
2018-08-19T12:11:18.526Z,4.50
2018-08-19T12:12:18.459Z,5.10
2018-08-19T12:13:18.424Z,6.00
2018-08-19T12:14:18.409Z,5.70
2018-08-19T12:15:18.349Z,7.10
2018-08-19T12:16:18.297Z,8.60
2018-08-19T12:17:18.247Z,6.90
2018-08-19T12:18:18.207Z,5.60
2018-08-19T12:19:18.180Z,4.90
2018-08-19T12:20:18.116Z,4.80
2018-08-19T12:21:18.072Z,6.10
2018-08-19T12:22:18.034Z,6.10
2018-08-19T12:23:17.996Z,4.70
2018-08-19T12:24:17.979Z,4.60
2018-08-19T12:25:17.901Z,4.80
2018-08-19T12:26:17.857Z,4.70
2018-08-19T12:27:17.839Z,4.70
2018-08-19T12:28:17.767Z,4.50
2018-08-19T12:29:17.757Z,4.40
2018-08-19T12:30:17.692Z,4.30
2018-08-19T12:31:17.649Z,4.40
2018-08-19T12:32:17.611Z,4.40
2018-08-19T12:33:17.555Z,4.20
2018-08-19T12:34:17.544Z,4.20
2018-08-19T12:35:17.480Z,4.10
2018-08-19T12:36:17.432Z,4.10
2018-08-19T12:37:17.495Z,4.20
2018-08-19T12:38:17.343Z,4.40
2018-08-19T12:39:17.325Z,4.40
2018-08-19T12:40:17.259Z,4.40
2018-08-19T12:41:17.211Z,4.30
2018-08-19T12:42:17.171Z,4.20
2018-08-19T12:43:17.125Z,4.50
2018-08-19T12:44:17.105Z,4.20
2018-08-19T12:45:17.053Z,4.20
2018-08-19T12:46:16.999Z,4.00
2018-08-19T12:47:16.983Z,4.10
2018-08-19T12:48:16.927Z,4.20
2018-08-19T12:49:16.925Z,4.30
2018-08-19T12:50:16.862Z,3.90
2018-08-19T12:51:16.828Z,4.20
2018-08-19T12:52:16.741Z,4.20
2018-08-19T12:53:16.697Z,4.00
2018-08-19T12:54:16.683Z,4.10
2018-08-19T12:55:16.611Z,4.50
2018-08-19T12:56:16.598Z,4.10
2018-08-19T12:57:16.539Z,4.10
2018-08-19T12:58:16.484Z,4.40
2018-08-19T12:59:16.479Z,3.90
2018-08-19T13:00:16.402Z,4.60
2018-08-19T13:01:16.367Z,4.40
2018-08-19T13:02:16.325Z,4.60
2018-08-19T13:03:16.265Z,4.10
2018-08-19T13:04:16.223Z,4.40
2018-08-19T13:05:16.211Z,4.30
2018-08-19T13:06:16.139Z,4.40
2018-08-19T13:07:16.098Z,4.40
2018-08-19T13:08:16.052Z,4.00
2018-08-19T13:09:16.028Z,4.10
2018-08-19T13:10:16.007Z,4.30
2018-08-19T13:11:15.943Z,4.10
2018-08-19T13:12:15.884Z,4.50
2018-08-19T13:13:15.836Z,4.40
2018-08-19T13:14:15.796Z,4.10
2018-08-19T13:15:15.786Z,4.50
2018-08-19T13:16:15.759Z,4.20
2018-08-19T13:17:15.675Z,4.80
2018-08-19T13:18:15.631Z,4.70